createdAt,value
2019-05-23T00:00:19.205Z,95.08
2019-05-23T00:01:19.193Z,95.12
2019-05-23T00:02:19.199Z,94.92
2019-05-23T00:03:19.190Z,94.98
2019-05-23T00:04:19.162Z,94.92
2019-05-23T00:05:19.147Z,95.02
2019-05-23T00:06:19.158Z,94.87
2019-05-23T00:07:19.128Z,95.33
2019-05-23T00:08:19.115Z,95.33
2019-05-23T00:09:19.101Z,95.43
2019-05-23T00:10:19.092Z,94.81
2019-05-23T00:11:19.106Z,95.33
2019-05-23T00:12:19.069Z,95.02
2019-05-23T00:13:19.057Z,95.53
2019-05-23T00:14:19.046Z,95.23
2019-05-23T00:15:19.034Z,95.33
2019-05-23T00:16:19.050Z,95.95
2019-05-23T00:17:19.016Z,96.25
2019-05-23T00:18:21.322Z,95.95
2019-05-23T00:19:18.999Z,96.36
2019-05-23T00:20:18.980Z,96.25
2019-05-23T00:21:18.996Z,96.25
2019-05-23T00:22:18.977Z,96.05
2019-05-23T00:23:18.948Z,96.25
2019-05-23T00:24:18.946Z,96.05
2019-05-23T00:25:18.923Z,96.46
2019-05-23T00:26:18.940Z,96.05
2019-05-23T00:27:18.906Z,96.25
2019-05-23T00:28:18.892Z,96.05
2019-05-23T00:29:18.882Z,96.36
2019-05-23T00:30:18.893Z,96.88
2019-05-23T00:31:18.856Z,96.46
2019-05-23T00:32:18.848Z,96.46
2019-05-23T00:33:18.834Z,96.46
2019-05-23T00:34:18.824Z,96.56
2019-05-23T00:35:18.837Z,96.46
2019-05-23T00:36:18.804Z,96.46
2019-05-23T00:37:18.813Z,96.67
2019-05-23T00:38:18.777Z,96.71
2019-05-23T00:39:18.793Z,95.78
2019-05-23T00:40:18.756Z,96.25
2019-05-23T00:41:18.746Z,95.78
2019-05-23T00:42:18.755Z,96.20
2019-05-23T00:43:18.722Z,96.30
2019-05-23T00:44:18.735Z,96.09
2019-05-23T00:45:18.704Z,96.09
2019-05-23T00:46:18.691Z,96.30
2019-05-23T00:47:18.678Z,96.41
2019-05-23T00:48:18.668Z,96.50
2019-05-23T00:49:18.679Z,96.50
2019-05-23T00:50:18.646Z,96.61
2019-05-23T00:51:18.655Z,96.41
2019-05-23T00:52:18.650Z,96.61
2019-05-23T00:53:18.614Z,96.92
2019-05-23T00:54:18.599Z,96.61
2019-05-23T00:55:18.591Z,96.50
2019-05-23T00:56:18.594Z,96.81
2019-05-23T00:57:18.629Z,96.71
2019-05-23T00:58:18.563Z,97.02
2019-05-23T00:59:26.639Z,96.81
2019-05-23T01:00:19.533Z,96.86
2019-05-23T01:01:18.522Z,96.81
2019-05-23T01:02:18.534Z,97.02
2019-05-23T01:03:18.506Z,96.71
2019-05-23T01:04:18.487Z,96.50
2019-05-23T01:05:18.481Z,97.02
2019-05-23T01:06:18.492Z,97.02
2019-05-23T01:07:18.456Z,97.17
2019-05-23T01:08:18.446Z,96.66
2019-05-23T01:09:18.437Z,97.02
2019-05-23T01:10:18.697Z,97.33
2019-05-23T01:11:18.449Z,97.43
2019-05-23T01:12:18.399Z,97.43
2019-05-23T01:13:18.387Z,97.23
2019-05-23T01:14:18.375Z,97.13
2019-05-23T01:15:18.377Z,97.43
2019-05-23T01:16:18.393Z,97.17
2019-05-23T01:17:18.341Z,97.23
2019-05-23T01:18:18.333Z,97.06
2019-05-23T01:19:18.319Z,97.02
2019-05-23T01:20:18.359Z,97.06
2019-05-23T01:21:18.348Z,97.38
2019-05-23T01:22:18.301Z,97.06
2019-05-23T01:23:18.275Z,97.27
2019-05-23T01:24:18.267Z,97.48
2019-05-23T01:25:18.289Z,97.27
2019-05-23T01:26:18.263Z,97.27
2019-05-23T01:27:18.234Z,96.96
2019-05-23T01:28:18.221Z,96.96
2019-05-23T01:29:18.210Z,97.27
2019-05-23T01:30:18.227Z,96.96
2019-05-23T01:31:18.210Z,97.48
2019-05-23T01:32:18.181Z,97.48
2019-05-23T01:33:18.164Z,97.17
2019-05-23T01:34:18.151Z,97.27
2019-05-23T01:35:18.166Z,97.27
2019-05-23T01:36:18.130Z,97.17
2019-05-23T01:37:18.123Z,97.27
2019-05-23T01:38:18.111Z,97.38
2019-05-23T01:39:18.114Z,97.27
2019-05-23T01:40:18.112Z,96.86
2019-05-23T01:41:18.076Z,97.38
2019-05-23T01:42:18.109Z,97.06
2019-05-23T01:43:18.049Z,97.27
2019-05-23T01:44:18.055Z,97.17
2019-05-23T01:45:18.105Z,97.01
2019-05-23T01:46:18.019Z,97.17
2019-05-23T01:47:18.030Z,96.96
2019-05-23T01:48:18.088Z,97.31
2019-05-23T01:49:17.991Z,97.31
2019-05-23T01:50:17.973Z,97.31
2019-05-23T01:51:17.961Z,97.11
2019-05-23T01:52:17.950Z,97.42
2019-05-23T01:53:17.969Z,97.42
2019-05-23T01:54:17.926Z,97.42
2019-05-23T01:55:17.921Z,97.42
2019-05-23T01:56:17.904Z,97.21
2019-05-23T01:57:17.894Z,97.42
2019-05-23T01:58:17.914Z,97.42
2019-05-23T01:59:17.870Z,97.42
2019-05-23T02:00:17.882Z,97.36
2019-05-23T02:01:17.850Z,97.21
2019-05-23T02:02:17.899Z,97.47
2019-05-23T02:03:17.827Z,97.36
2019-05-23T02:04:17.839Z,97.36
2019-05-23T02:05:17.807Z,97.31
2019-05-23T02:06:17.792Z,97.47
2019-05-23T02:07:17.784Z,97.47
2019-05-23T02:08:17.770Z,97.42
2019-05-23T02:09:17.782Z,97.36
2019-05-23T02:10:17.748Z,97.36
2019-05-23T02:11:17.743Z,97.31
2019-05-23T02:12:17.729Z,97.36
2019-05-23T02:13:17.756Z,97.47
2019-05-23T02:14:17.703Z,97.56
2019-05-23T02:15:17.692Z,97.16
2019-05-23T02:16:17.681Z,97.26
2019-05-23T02:17:17.698Z,97.16
2019-05-23T02:18:17.696Z,97.36
2019-05-23T02:19:17.675Z,97.26
2019-05-23T02:20:17.634Z,97.36
2019-05-23T02:21:17.628Z,97.26
2019-05-23T02:22:17.612Z,97.26
2019-05-23T02:23:17.600Z,97.05
2019-05-23T02:24:17.612Z,97.36
2019-05-23T02:25:17.578Z,96.84
2019-05-23T02:26:17.567Z,97.67
2019-05-23T02:27:17.554Z,97.98
2019-05-23T02:28:17.589Z,97.67
2019-05-23T02:29:17.531Z,97.67
2019-05-23T02:30:33.015Z,97.67
2019-05-23T02:31:18.510Z,97.47
2019-05-23T02:32:17.505Z,97.67
2019-05-23T02:33:17.516Z,97.73
2019-05-23T02:34:17.478Z,97.88
2019-05-23T02:35:17.480Z,97.56
2019-05-23T02:36:17.450Z,97.36
2019-05-23T02:37:17.459Z,97.47
2019-05-23T02:38:17.429Z,97.36
2019-05-23T02:39:17.420Z,97.56
2019-05-23T02:40:17.409Z,97.67
2019-05-23T02:41:17.395Z,97.56
2019-05-23T02:42:17.397Z,97.61
2019-05-23T02:43:17.375Z,97.88
2019-05-23T02:44:17.359Z,97.88
2019-05-23T02:45:17.348Z,97.72
2019-05-23T02:46:17.339Z,97.92
2019-05-23T02:47:17.347Z,97.61
2019-05-23T02:48:17.313Z,97.61
2019-05-23T02:49:17.349Z,97.61
2019-05-23T02:50:17.311Z,97.72
2019-05-23T02:51:17.280Z,97.61
2019-05-23T02:52:17.271Z,97.72
2019-05-23T02:53:17.257Z,97.61
2019-05-23T02:54:17.245Z,97.51
2019-05-23T02:55:17.258Z,97.72
2019-05-23T02:56:17.221Z,97.72
2019-05-23T02:57:17.211Z,97.61
2019-05-23T02:58:17.202Z,97.82
2019-05-23T02:59:17.188Z,97.98
2019-05-23T03:00:17.198Z,97.41
2019-05-23T03:01:17.166Z,97.72
2019-05-23T03:02:17.154Z,98.23
2019-05-23T03:03:17.156Z,98.44
2019-05-23T03:04:17.132Z,97.92
2019-05-23T03:05:17.154Z,97.92
2019-05-23T03:06:17.109Z,98.13
2019-05-23T03:07:17.095Z,98.85
2019-05-23T03:08:17.082Z,98.54
2019-05-23T03:09:17.077Z,98.44
2019-05-23T03:10:17.083Z,98.96
2019-05-23T03:11:17.052Z,98.60
2019-05-23T03:12:17.037Z,98.33
2019-05-23T03:13:17.055Z,98.85
2019-05-23T03:14:17.014Z,98.13
2019-05-23T03:15:17.051Z,97.92
2019-05-23T03:16:16.992Z,97.92
2019-05-23T03:17:16.982Z,98.02
2019-05-23T03:18:16.968Z,98.33
2019-05-23T03:19:16.957Z,98.23
2019-05-23T03:20:16.973Z,98.33
2019-05-23T03:21:16.933Z,98.23
2019-05-23T03:22:16.945Z,98.08
2019-05-23T03:23:16.911Z,98.02
2019-05-23T03:24:16.902Z,98.13
2019-05-23T03:25:16.886Z,98.23
2019-05-23T03:26:16.876Z,98.44
2019-05-23T03:27:16.897Z,98.33
2019-05-23T03:28:16.876Z,98.13
2019-05-23T03:29:16.840Z,98.02
2019-05-23T03:30:16.831Z,98.02
2019-05-23T03:31:29.675Z,98.02
2019-05-23T03:32:17.822Z,97.92
2019-05-23T03:33:16.795Z,97.92
2019-05-23T03:34:16.828Z,97.82
2019-05-23T03:35:16.789Z,98.02
2019-05-23T03:36:16.767Z,98.02
2019-05-23T03:37:16.754Z,97.92
2019-05-23T03:38:16.763Z,97.82
2019-05-23T03:39:16.729Z,97.82
2019-05-23T03:40:16.716Z,97.82
2019-05-23T03:41:16.711Z,97.72
2019-05-23T03:42:16.695Z,97.72
2019-05-23T03:43:16.702Z,97.88
2019-05-23T03:44:16.681Z,97.67
2019-05-23T03:45:16.661Z,97.88
2019-05-23T03:46:16.646Z,97.56
2019-05-23T03:47:16.663Z,98.19
2019-05-23T03:48:16.650Z,97.88
2019-05-23T03:49:16.612Z,97.88
2019-05-23T03:50:16.600Z,97.67
2019-05-23T03:51:16.592Z,97.88
2019-05-23T03:52:16.575Z,97.67
2019-05-23T03:53:16.587Z,97.47
2019-05-23T03:54:16.553Z,97.88
2019-05-23T03:55:16.548Z,97.77
2019-05-23T03:56:16.556Z,97.77
2019-05-23T03:57:16.521Z,97.67
2019-05-23T03:58:16.530Z,97.56
2019-05-23T03:59:16.647Z,97.67
2019-05-23T04:00:16.482Z,97.77
2019-05-23T04:01:16.473Z,97.42
2019-05-23T04:02:16.460Z,98.14
2019-05-23T04:03:16.470Z,97.88
2019-05-23T04:04:16.461Z,97.77
2019-05-23T04:05:16.452Z,97.83
2019-05-23T04:06:16.419Z,97.63
2019-05-23T04:07:16.406Z,97.94
2019-05-23T04:08:16.396Z,97.01
2019-05-23T04:09:16.380Z,97.11
2019-05-23T04:10:16.388Z,97.01
2019-05-23T04:11:16.369Z,97.31
2019-05-23T04:12:16.370Z,97.42
2019-05-23T04:13:16.338Z,97.17
2019-05-23T04:14:16.325Z,97.42
2019-05-23T04:15:16.318Z,97.11
2019-05-23T04:16:16.305Z,96.59
2019-05-23T04:17:16.319Z,96.75
2019-05-23T04:18:16.294Z,96.86
2019-05-23T04:19:16.273Z,96.45
2019-05-23T04:20:16.275Z,96.45
2019-05-23T04:21:16.246Z,96.55
2019-05-23T04:22:16.251Z,96.75
2019-05-23T04:23:16.228Z,96.34
2019-05-23T04:24:16.212Z,96.55
2019-05-23T04:25:16.209Z,96.55
2019-05-23T04:26:16.190Z,96.75
2019-05-23T04:27:16.196Z,96.86
2019-05-23T04:28:16.179Z,96.75
2019-05-23T04:29:16.155Z,96.71
2019-05-23T04:30:16.174Z,96.75
2019-05-23T04:31:16.138Z,96.55
2019-05-23T04:32:16.123Z,95.78
2019-05-23T04:33:16.128Z,96.14
2019-05-23T04:34:16.111Z,96.34
2019-05-23T04:35:16.133Z,96.09
2019-05-23T04:36:16.079Z,96.30
2019-05-23T04:37:16.076Z,96.41
2019-05-23T04:38:16.057Z,96.30
2019-05-23T04:39:16.051Z,96.30
2019-05-23T04:40:16.056Z,96.30
2019-05-23T04:41:16.022Z,95.89
2019-05-23T04:42:16.012Z,95.89
2019-05-23T04:43:16.003Z,95.99
2019-05-23T04:44:16.016Z,96.20
2019-05-23T04:45:16.050Z,95.78
2019-05-23T04:46:15.972Z,96.36
2019-05-23T04:47:15.955Z,96.41
2019-05-23T04:48:15.952Z,95.58
2019-05-23T04:49:15.963Z,95.23
2019-05-23T04:50:15.946Z,95.33
2019-05-23T04:51:15.911Z,95.02
2019-05-23T04:52:15.899Z,95.12
2019-05-23T04:53:15.921Z,94.67
2019-05-23T04:54:15.880Z,94.56
2019-05-23T04:55:15.870Z,95.28
2019-05-23T04:56:15.860Z,94.36
2019-05-23T04:57:15.866Z,94.56
2019-05-23T04:58:15.832Z,94.67
2019-05-23T04:59:15.824Z,94.26
2019-05-23T05:00:15.817Z,94.01
2019-05-23T05:01:15.830Z,93.90
2019-05-23T05:02:25.424Z,94.01
2019-05-23T05:03:18.377Z,93.76
2019-05-23T05:04:15.766Z,93.86
2019-05-23T05:05:15.761Z,94.17
2019-05-23T05:06:15.831Z,93.96
2019-05-23T05:07:15.735Z,93.86
2019-05-23T05:08:15.723Z,93.76
2019-05-23T05:09:15.736Z,93.04
2019-05-23T05:10:15.716Z,93.14
2019-05-23T05:11:15.692Z,93.51
2019-05-23T05:12:15.674Z,93.10
2019-05-23T05:13:15.663Z,92.95
2019-05-23T05:14:15.675Z,92.95
2019-05-23T05:15:15.646Z,93.32
2019-05-23T05:16:15.640Z,92.35
2019-05-23T05:17:15.621Z,91.75
2019-05-23T05:18:15.634Z,90.23
2019-05-23T05:19:15.603Z,88.45
2019-05-23T05:20:15.586Z,87.63
2019-05-23T05:21:15.612Z,86.26
2019-05-23T05:22:15.566Z,85.81
2019-05-23T05:23:15.553Z,84.75
2019-05-23T05:24:15.541Z,84.75
2019-05-23T05:25:15.532Z,84.41
2019-05-23T05:26:15.542Z,83.75
2019-05-23T05:27:15.507Z,83.61
2019-05-23T05:28:15.497Z,82.69
2019-05-23T05:29:15.488Z,81.57
2019-05-23T05:30:15.500Z,81.12
2019-05-23T05:31:15.471Z,81.09
2019-05-23T05:32:15.475Z,79.69
2019-05-23T05:33:15.438Z,79.59
2019-05-23T05:34:15.428Z,80.82
2019-05-23T05:35:15.437Z,82.31
2019-05-23T05:36:15.406Z,81.35
2019-05-23T05:37:15.417Z,82.07
2019-05-23T05:38:15.412Z,81.11
2019-05-23T05:39:15.370Z,80.40
2019-05-23T05:40:15.359Z,79.38
2019-05-23T05:41:15.351Z,78.87
2019-05-23T05:42:15.362Z,79.89
2019-05-23T05:43:15.349Z,80.70
2019-05-23T05:44:15.318Z,80.50
2019-05-23T05:45:15.307Z,79.99
2019-05-23T05:46:15.295Z,78.60
2019-05-23T05:47:15.285Z,78.77
2019-05-23T05:48:15.291Z,80.77
2019-05-23T05:49:15.259Z,79.41
2019-05-23T05:50:15.247Z,79.30
2019-05-23T05:51:15.235Z,77.84
2019-05-23T05:52:15.251Z,76.82
2019-05-23T05:53:15.214Z,78.01
2019-05-23T05:54:15.202Z,76.79
2019-05-23T05:55:15.201Z,75.50
2019-05-23T05:56:15.186Z,75.64
2019-05-23T05:57:15.193Z,75.88
2019-05-23T05:58:15.191Z,76.15
2019-05-23T05:59:15.148Z,77.57
2019-05-23T06:00:15.134Z,78.35
2019-05-23T06:01:31.163Z,77.84
2019-05-23T06:02:16.109Z,77.53
2019-05-23T06:03:15.131Z,78.21
2019-05-23T06:04:15.090Z,78.48
2019-05-23T06:05:15.077Z,76.55
2019-05-23T06:06:15.072Z,74.21
2019-05-23T06:07:15.055Z,76.10
2019-05-23T06:08:15.065Z,75.90
2019-05-23T06:09:15.060Z,74.14
2019-05-23T06:10:15.023Z,73.26
2019-05-23T06:11:15.036Z,73.87
2019-05-23T06:12:15.002Z,75.46
2019-05-23T06:13:15.028Z,74.04
2019-05-23T06:14:15.025Z,74.95
2019-05-23T06:15:14.991Z,74.21
2019-05-23T06:16:14.968Z,73.02
2019-05-23T06:17:14.981Z,73.43
2019-05-23T06:18:14.930Z,74.21
2019-05-23T06:19:14.940Z,74.51
2019-05-23T06:20:14.907Z,73.57
2019-05-23T06:21:14.896Z,73.53
2019-05-23T06:22:14.887Z,73.70
2019-05-23T06:23:14.894Z,72.89
2019-05-23T06:24:14.888Z,71.60
2019-05-23T06:25:14.920Z,73.09
2019-05-23T06:26:14.847Z,72.58
2019-05-23T06:27:14.850Z,72.41
2019-05-23T06:28:14.820Z,68.93
2019-05-23T06:29:14.806Z,70.25
2019-05-23T06:30:14.797Z,72.17
2019-05-23T06:31:14.785Z,72.34
2019-05-23T06:32:14.800Z,71.84
2019-05-23T06:33:23.457Z,71.23
2019-05-23T06:34:15.751Z,70.12
2019-05-23T06:35:14.740Z,68.80
2019-05-23T06:36:14.742Z,68.80
2019-05-23T06:37:14.738Z,70.59
2019-05-23T06:38:14.709Z,70.89
2019-05-23T06:39:14.693Z,69.17
2019-05-23T06:40:14.681Z,69.27
2019-05-23T06:41:14.695Z,70.08
2019-05-23T06:42:14.659Z,71.06
2019-05-23T06:43:14.672Z,70.02
2019-05-23T06:44:14.639Z,69.81
2019-05-23T06:45:14.628Z,67.18
2019-05-23T06:46:14.639Z,68.30
2019-05-23T06:47:14.603Z,67.89
2019-05-23T06:48:14.596Z,69.18
2019-05-23T06:49:14.579Z,68.30
2019-05-23T06:50:14.571Z,67.59
2019-05-23T06:51:14.574Z,68.87
2019-05-23T06:52:14.548Z,69.07
2019-05-23T06:53:14.579Z,67.63
2019-05-23T06:54:14.525Z,67.69
2019-05-23T06:55:14.514Z,67.97
2019-05-23T06:56:14.589Z,66.62
2019-05-23T06:57:14.490Z,65.41
2019-05-23T06:58:14.506Z,64.73
2019-05-23T06:59:14.470Z,63.22
2019-05-23T07:00:14.459Z,66.15
2019-05-23T07:01:14.476Z,65.21
2019-05-23T07:02:14.433Z,62.71
2019-05-23T07:03:14.477Z,63.15
2019-05-23T07:04:14.412Z,67.29
2019-05-23T07:05:14.428Z,68.00
2019-05-23T07:06:14.407Z,67.86
2019-05-23T07:07:14.443Z,64.33
2019-05-23T07:08:14.387Z,63.76
2019-05-23T07:09:14.487Z,65.07
2019-05-23T07:10:14.344Z,64.26
2019-05-23T07:11:14.461Z,64.33
2019-05-23T07:12:14.322Z,64.58
2019-05-23T07:13:14.493Z,63.53
2019-05-23T07:14:14.300Z,64.47
2019-05-23T07:15:14.353Z,63.29
2019-05-23T07:16:14.277Z,63.79
2019-05-23T07:17:14.267Z,65.99
2019-05-23T07:18:14.284Z,63.29
2019-05-23T07:19:14.288Z,62.11
2019-05-23T07:20:14.237Z,64.06
2019-05-23T07:21:14.247Z,63.55
2019-05-23T07:22:17.709Z,64.49
2019-05-23T07:23:14.200Z,65.17
2019-05-23T07:24:14.189Z,63.76
2019-05-23T07:25:14.196Z,63.35
2019-05-23T07:26:14.168Z,63.25
2019-05-23T07:27:14.156Z,63.45
2019-05-23T07:28:14.147Z,63.32
2019-05-23T07:29:14.132Z,64.61
2019-05-23T07:30:14.162Z,63.19
2019-05-23T07:31:14.113Z,64.34
2019-05-23T07:32:14.098Z,60.84
2019-05-23T07:33:14.114Z,61.14
2019-05-23T07:34:14.103Z,62.55
2019-05-23T07:35:14.087Z,64.07
2019-05-23T07:36:14.082Z,62.96
2019-05-23T07:37:14.043Z,61.41
2019-05-23T07:38:14.032Z,60.33
2019-05-23T07:39:14.050Z,61.37
2019-05-23T07:40:14.009Z,63.12
2019-05-23T07:41:14.049Z,64.10
2019-05-23T07:42:13.985Z,63.33
2019-05-23T07:43:13.976Z,62.06
2019-05-23T07:44:13.991Z,62.24
2019-05-23T07:45:13.969Z,60.09
2019-05-23T07:46:13.942Z,58.71
2019-05-23T07:47:13.930Z,59.84
2019-05-23T07:48:13.957Z,59.84
2019-05-23T07:49:13.958Z,60.05
2019-05-23T07:50:13.903Z,61.18
2019-05-23T07:51:13.884Z,60.08
2019-05-23T07:52:13.910Z,62.49
2019-05-23T07:53:13.914Z,60.28
2019-05-23T07:54:14.400Z,60.08
2019-05-23T07:55:13.850Z,59.47
2019-05-23T07:56:13.847Z,60.78
2019-05-23T07:57:13.822Z,61.16
2019-05-23T07:58:14.395Z,61.73
2019-05-23T07:59:13.795Z,62.51
2019-05-23T08:00:13.827Z,61.37
2019-05-23T08:01:13.802Z,61.74
2019-05-23T08:02:13.775Z,60.88
2019-05-23T08:03:13.778Z,59.17
2019-05-23T08:04:21.492Z,59.65
2019-05-23T08:05:14.771Z,60.82
2019-05-23T08:06:13.740Z,59.89
2019-05-23T08:07:13.713Z,58.13
2019-05-23T08:08:13.753Z,57.23
2019-05-23T08:09:13.682Z,56.73
2019-05-23T08:10:13.672Z,55.85
2019-05-23T08:11:13.716Z,57.06
2019-05-23T08:12:13.650Z,55.78
2019-05-23T08:13:13.640Z,54.43
2019-05-23T08:14:13.629Z,55.35
2019-05-23T08:15:13.618Z,56.01
2019-05-23T08:16:13.631Z,59.63
2019-05-23T08:17:13.599Z,59.30
2019-05-23T08:18:13.588Z,57.67
2019-05-23T08:19:19.379Z,53.45
2019-05-23T08:20:14.587Z,53.77
2019-05-23T08:21:13.551Z,58.70
2019-05-23T08:22:13.561Z,57.24
2019-05-23T08:23:13.545Z,54.68
2019-05-23T08:24:13.518Z,57.86
2019-05-23T08:25:13.505Z,51.94
2019-05-23T08:26:13.495Z,53.70
2019-05-23T08:27:13.512Z,54.10
2019-05-23T08:28:13.477Z,56.21
2019-05-23T08:29:25.463Z,54.60
2019-05-23T08:30:14.446Z,54.38
2019-05-23T08:31:13.436Z,53.45
2019-05-23T08:32:13.444Z,50.84
2019-05-23T08:33:13.421Z,57.03
2019-05-23T08:34:13.429Z,55.40
2019-05-23T08:35:16.982Z,54.67
2019-05-23T08:36:13.379Z,53.17
2019-05-23T08:37:13.367Z,55.17
2019-05-23T08:38:13.371Z,54.67
2019-05-23T08:39:13.348Z,54.14
2019-05-23T08:40:13.335Z,54.87
2019-05-23T08:41:13.395Z,53.24
2019-05-23T08:42:13.312Z,47.76
2019-05-23T08:43:13.559Z,50.79
2019-05-23T08:44:13.293Z,49.21
2019-05-23T08:45:13.280Z,54.27
2019-05-23T08:46:13.269Z,53.44
2019-05-23T08:47:13.291Z,54.42
2019-05-23T08:48:13.248Z,52.29
2019-05-23T08:49:13.236Z,47.02
2019-05-23T08:50:13.225Z,48.84
2019-05-23T08:51:13.215Z,47.66
2019-05-23T08:52:13.231Z,47.38
2019-05-23T08:53:13.191Z,48.57
2019-05-23T08:54:13.180Z,52.87
2019-05-23T08:55:13.194Z,51.54
2019-05-23T08:56:18.809Z,51.72
2019-05-23T08:57:14.145Z,50.20
2019-05-23T08:58:13.157Z,47.02
2019-05-23T08:59:13.126Z,49.29
2019-05-23T09:00:13.115Z,48.99
2019-05-23T09:01:13.131Z,53.07
2019-05-23T09:02:13.093Z,53.84
2019-05-23T09:03:13.105Z,49.92
2019-05-23T09:04:13.072Z,45.43
2019-05-23T09:05:13.062Z,49.41
2019-05-23T09:06:13.048Z,55.24
2019-05-23T09:07:13.065Z,51.54
2019-05-23T09:08:16.657Z,53.30
2019-05-23T09:09:28.550Z,50.57
2019-05-23T09:10:14.003Z,49.67
2019-05-23T09:11:12.993Z,50.27
2019-05-23T09:12:12.983Z,50.87
2019-05-23T09:13:12.991Z,48.45
2019-05-23T09:14:12.963Z,46.80
2019-05-23T09:15:12.949Z,50.09
2019-05-23T09:16:12.937Z,49.59
2019-05-23T09:17:12.953Z,48.90
2019-05-23T09:18:12.933Z,51.59
2019-05-23T09:19:12.902Z,49.97
2019-05-23T09:20:12.894Z,48.60
2019-05-23T09:21:12.906Z,49.59
2019-05-23T09:22:12.874Z,48.47
2019-05-23T09:23:12.862Z,48.39
2019-05-23T09:24:12.853Z,50.32
2019-05-23T09:25:12.883Z,51.89
2019-05-23T09:26:12.830Z,48.60
2019-05-23T09:27:12.864Z,47.42
2019-05-23T09:28:12.805Z,50.59
2019-05-23T09:29:12.811Z,50.59
2019-05-23T09:30:12.784Z,47.49
2019-05-23T09:31:12.794Z,46.62
2019-05-23T09:32:12.759Z,50.22
2019-05-23T09:33:12.773Z,46.94
2019-05-23T09:34:12.743Z,49.26
2019-05-23T09:35:20.808Z,48.26
2019-05-23T09:36:13.718Z,47.76
2019-05-23T09:37:12.704Z,48.49
2019-05-23T09:38:12.727Z,51.49
2019-05-23T09:39:12.682Z,50.79
2019-05-23T09:40:12.670Z,51.37
2019-05-23T09:41:12.666Z,51.25
2019-05-23T09:42:12.651Z,50.70
2019-05-23T09:43:12.659Z,51.20
2019-05-23T09:44:12.626Z,50.32
2019-05-23T09:45:12.624Z,49.44
2019-05-23T09:46:12.627Z,51.62
2019-05-23T09:47:12.592Z,49.32
2019-05-23T09:48:12.581Z,47.26
2019-05-23T09:49:12.571Z,48.69
2019-05-23T09:50:12.566Z,48.08
2019-05-23T09:51:12.574Z,49.39
2019-05-23T09:52:12.827Z,49.13
2019-05-23T09:53:12.526Z,49.21
2019-05-23T09:54:12.533Z,52.49
2019-05-23T09:55:12.506Z,50.07
2019-05-23T09:56:12.526Z,49.64
2019-05-23T09:57:12.483Z,51.42
2019-05-23T09:58:12.510Z,51.50
2019-05-23T09:59:12.463Z,47.89
2019-05-23T10:00:12.459Z,48.35
2019-05-23T10:01:12.469Z,48.94
2019-05-23T10:02:12.428Z,54.91
2019-05-23T10:03:12.426Z,48.50
2019-05-23T10:04:12.411Z,48.80
2019-05-23T10:05:12.397Z,51.07
2019-05-23T10:06:12.407Z,50.20
2019-05-23T10:07:12.372Z,49.22
2019-05-23T10:08:12.396Z,48.55
2019-05-23T10:09:12.395Z,49.49
2019-05-23T10:10:12.353Z,49.14
2019-05-23T10:11:12.347Z,49.24
2019-05-23T10:12:12.337Z,50.37
2019-05-23T10:13:12.310Z,52.80
2019-05-23T10:14:12.329Z,50.57
2019-05-23T10:15:12.307Z,49.14
2019-05-23T10:16:12.336Z,47.74
2019-05-23T10:17:12.261Z,46.98
2019-05-23T10:18:12.248Z,49.56
2019-05-23T10:19:12.239Z,49.88
2019-05-23T10:20:12.227Z,54.70
2019-05-23T10:21:12.232Z,54.43
2019-05-23T10:22:12.205Z,54.83
2019-05-23T10:23:12.199Z,54.65
2019-05-23T10:24:12.183Z,53.55
2019-05-23T10:25:12.173Z,58.07
2019-05-23T10:26:12.185Z,56.65
2019-05-23T10:27:12.164Z,53.50
2019-05-23T10:28:12.137Z,55.44
2019-05-23T10:29:12.128Z,51.29
2019-05-23T10:30:12.117Z,49.07
2019-05-23T10:31:12.132Z,47.55
2019-05-23T10:32:12.094Z,50.52
2019-05-23T10:33:13.421Z,48.50
2019-05-23T10:34:12.073Z,48.58
2019-05-23T10:35:12.079Z,47.58
2019-05-23T10:36:12.055Z,46.66
2019-05-23T10:37:12.038Z,42.97
2019-05-23T10:38:12.048Z,49.45
2019-05-23T10:39:12.042Z,51.97
2019-05-23T10:40:12.008Z,45.25
2019-05-23T10:41:11.995Z,48.67
2019-05-23T10:42:11.983Z,51.22
2019-05-23T10:43:11.994Z,50.84
2019-05-23T10:44:11.992Z,49.24
2019-05-23T10:45:11.950Z,48.57
2019-05-23T10:46:11.940Z,50.69
2019-05-23T10:47:11.928Z,47.38
2019-05-23T10:48:11.915Z,51.21
2019-05-23T10:49:11.922Z,47.83
2019-05-23T10:50:11.917Z,48.55
2019-05-23T10:51:11.887Z,50.26
2019-05-23T10:52:11.872Z,49.56
2019-05-23T10:53:11.899Z,49.05
2019-05-23T10:54:11.850Z,52.59
2019-05-23T10:55:11.864Z,48.08
2019-05-23T10:56:11.829Z,49.91
2019-05-23T10:57:11.818Z,52.89
2019-05-23T10:58:11.807Z,49.54
2019-05-23T10:59:11.823Z,47.88
2019-05-23T11:00:11.872Z,47.28
2019-05-23T11:01:11.775Z,48.57
2019-05-23T11:02:11.763Z,47.04
2019-05-23T11:03:11.752Z,51.64
2019-05-23T11:04:11.741Z,47.36
2019-05-23T11:05:13.884Z,49.58
2019-05-23T11:06:15.991Z,51.39
2019-05-23T11:07:12.706Z,49.34
2019-05-23T11:08:11.704Z,52.77
2019-05-23T11:09:11.712Z,52.69
2019-05-23T11:10:11.674Z,51.49
2019-05-23T11:11:14.685Z,50.51
2019-05-23T11:12:11.652Z,50.94
2019-05-23T11:13:11.639Z,53.37
2019-05-23T11:14:11.634Z,50.46
2019-05-23T11:15:11.658Z,50.79
2019-05-23T11:16:11.607Z,53.17
2019-05-23T11:17:11.596Z,54.38
2019-05-23T11:18:11.583Z,57.39
2019-05-23T11:19:11.573Z,55.78
2019-05-23T11:20:11.580Z,52.47
2019-05-23T11:21:11.550Z,50.18
2019-05-23T11:22:11.568Z,50.79
2019-05-23T11:23:11.529Z,52.87
2019-05-23T11:24:11.539Z,54.07
2019-05-23T11:25:11.503Z,54.70
2019-05-23T11:26:11.495Z,52.09
2019-05-23T11:27:11.492Z,50.59
2019-05-23T11:28:11.492Z,54.20
2019-05-23T11:29:11.459Z,54.60
2019-05-23T11:30:11.453Z,53.70
2019-05-23T11:31:11.437Z,52.57
2019-05-23T11:32:11.429Z,52.39
2019-05-23T11:33:11.429Z,52.77
2019-05-23T11:34:11.407Z,46.94
2019-05-23T11:35:11.399Z,47.54
2019-05-23T11:36:11.412Z,51.52
2019-05-23T11:37:11.396Z,50.89
2019-05-23T11:38:11.364Z,51.17
2019-05-23T11:39:11.348Z,47.37
2019-05-23T11:40:11.371Z,47.37
2019-05-23T11:41:11.323Z,46.97
2019-05-23T11:42:11.317Z,49.85
2019-05-23T11:43:11.324Z,45.07
2019-05-23T11:44:11.291Z,47.17
2019-05-23T11:45:11.278Z,45.57
2019-05-23T11:46:11.273Z,49.07
2019-05-23T11:47:11.293Z,49.87
2019-05-23T11:48:11.289Z,48.55
2019-05-23T11:49:11.402Z,49.42
2019-05-23T11:50:11.451Z,48.52
2019-05-23T11:51:11.219Z,46.77
2019-05-23T11:52:11.205Z,45.79
2019-05-23T11:53:11.215Z,45.01
2019-05-23T11:54:11.190Z,45.84
2019-05-23T11:55:11.171Z,49.37
2019-05-23T11:56:11.159Z,45.68
2019-05-23T11:57:11.170Z,49.01
2019-05-23T11:58:11.163Z,48.61
2019-05-23T11:59:11.125Z,48.91
2019-05-23T12:00:11.121Z,45.84
2019-05-23T12:01:19.873Z,48.75
2019-05-23T12:02:12.094Z,50.76
2019-05-23T12:03:11.110Z,50.91
2019-05-23T12:04:11.099Z,47.42
2019-05-23T12:05:11.065Z,48.63
2019-05-23T12:06:11.072Z,52.12
2019-05-23T12:07:11.042Z,51.24
2019-05-23T12:08:11.063Z,51.44
2019-05-23T12:09:11.024Z,51.44
2019-05-23T12:10:11.006Z,51.74
2019-05-23T12:11:11.003Z,49.80
2019-05-23T12:12:11.008Z,50.61
2019-05-23T12:13:10.976Z,52.47
2019-05-23T12:14:10.959Z,52.75
2019-05-23T12:15:10.951Z,47.99
2019-05-23T12:16:10.936Z,48.89
2019-05-23T12:17:10.962Z,50.69
2019-05-23T12:18:10.922Z,45.98
2019-05-23T12:19:10.910Z,45.98
2019-05-23T12:20:10.897Z,49.19
2019-05-23T12:21:10.911Z,46.20
2019-05-23T12:22:10.947Z,49.04
2019-05-23T12:23:11.337Z,49.16
2019-05-23T12:24:10.862Z,53.27
2019-05-23T12:25:21.722Z,49.05
2019-05-23T12:26:11.852Z,47.38
2019-05-23T12:27:10.827Z,48.98
2019-05-23T12:28:10.848Z,50.16
2019-05-23T12:29:10.803Z,49.16
2019-05-23T12:30:10.789Z,50.26
2019-05-23T12:31:10.794Z,52.97
2019-05-23T12:32:10.762Z,54.68
2019-05-23T12:33:10.766Z,51.37
2019-05-23T12:34:10.763Z,49.96
2019-05-23T12:35:11.930Z,47.65
2019-05-23T12:36:10.718Z,47.97
2019-05-23T12:37:20.174Z,51.69
2019-05-23T12:38:11.717Z,50.48
2019-05-23T12:39:10.709Z,47.27
2019-05-23T12:40:10.679Z,50.09
2019-05-23T12:41:10.668Z,48.68
2019-05-23T12:42:10.665Z,50.18
2019-05-23T12:43:10.663Z,49.18
2019-05-23T12:44:10.632Z,48.68
2019-05-23T12:45:10.625Z,49.91
2019-05-23T12:46:10.620Z,53.30
2019-05-23T12:47:10.601Z,53.20
2019-05-23T12:48:10.610Z,54.10
2019-05-23T12:49:10.605Z,53.27
2019-05-23T12:50:10.568Z,52.67
2019-05-23T12:51:10.637Z,52.97
2019-05-23T12:52:10.541Z,50.29